Time;durP1;ratioP1;P1;durP2;ratioP2;P2;SDS_P1;SDS_P2;PMS_P1;PMS_P2;Temp;Humidity;BMP_temperature;BMP_pressure;BME280_temperature;BME280_humidity;BME280_pressure;Samples;Min_cycle;Max_cycle;Signal;HPM_P1;HPM_P2
2021/01/30 00:00:52;;;;;;;134.65;46.28;;;;;;;0.08;61.48;98223.77;147335;1146;104487;-73
2021/01/30 00:03:55;;;;;;;256.47;88.15;;;;;;;0.09;61.91;98220.16;147214;1146;104578;-72
2021/01/30 00:06:58;;;;;;;103.00;41.47;;;;;;;0.13;61.85;98215.48;147307;1147;104548;-68
2021/01/30 00:10:01;;;;;;;240.00;92.42;;;;;;;0.12;61.85;98219.91;147038;1146;104525;-71
2021/01/30 00:13:05;;;;;;;134.55;55.12;;;;;;;0.11;61.91;98223.48;147173;1146;104473;-70
2021/01/30 00:16:09;;;;;;;93.50;41.13;;;;;;;0.06;61.89;98215.22;147157;1147;104630;-70
2021/01/30 00:19:12;;;;;;;101.40;43.58;;;;;;;0.06;61.87;98223.08;147131;1147;104503;-71
2021/01/30 00:22:18;;;;;;;89.67;39.00;;;;;;;0.09;61.67;98224.59;147559;1147;104553;-70
2021/01/30 00:25:23;;;;;;;94.30;41.53;;;;;;;0.10;61.71;98229.70;147137;1147;104470;-69
2021/01/30 00:28:26;;;;;;;96.00;41.10;;;;;;;0.16;62.01;98230.95;147592;1146;104553;-71
2021/01/30 00:31:29;;;;;;;80.87;33.35;;;;;;;0.18;62.02;98216.73;147431;1146;105018;-70
2021/01/30 00:34:34;;;;;;;86.82;38.38;;;;;;;0.23;62.16;98221.55;147343;1147;104562;-70
2021/01/30 00:37:37;;;;;;;81.50;34.53;;;;;;;0.24;61.44;98228.47;147607;1147;104558;-71
2021/01/30 00:40:40;;;;;;;91.75;39.65;;;;;;;0.24;61.71;98225.84;147277;1146;104545;-71
2021/01/30 00:43:44;;;;;;;77.60;35.03;;;;;;;0.25;61.72;98216.17;147369;1146;104512;-71
2021/01/30 00:46:50;;;;;;;84.47;38.23;;;;;;;0.24;61.78;98210.11;147368;1147;104529;-71
2021/01/30 00:49:53;;;;;;;83.43;37.60;;;;;;;0.25;61.84;98214.40;147449;1145;104562;-71
2021/01/30 00:52:56;;;;;;;75.17;32.88;;;;;;;0.25;61.94;98210.92;147541;1147;104499;-71
2021/01/30 00:56:19;;;;;;;86.37;37.75;;;;;;;0.25;61.59;98217.02;147395;1147;104518;-71
2021/01/30 00:59:24;;;;;;;75.72;34.38;;;;;;;0.25;61.82;98211.77;147575;1147;104555;-70
2021/01/30 01:02:28;;;;;;;79.65;34.15;;;;;;;0.24;61.79;98217.16;147401;1146;104646;-70
2021/01/30 01:05:31;;;;;;;78.00;36.40;;;;;;;0.21;61.73;98223.48;147505;1147;104586;-70
2021/01/30 01:08:35;;;;;;;78.37;35.67;;;;;;;0.12;61.72;98229.58;147514;1147;104473;-71
2021/01/30 01:11:40;;;;;;;88.12;38.25;;;;;;;0.06;61.53;98224.84;147418;1146;104473;-70
2021/01/30 01:14:43;;;;;;;72.33;32.10;;;;;;;0.02;61.92;98213.84;147649;1146;104538;-72
2021/01/30 01:17:47;;;;;;;80.22;38.33;;;;;;;0.06;62.12;98220.46;147630;1148;104634;-70
2021/01/30 01:20:50;;;;;;;86.50;38.58;;;;;;;0.09;61.64;98221.97;147554;1146;104465;-70
2021/01/30 01:23:54;;;;;;;76.42;32.15;;;;;;;0.12;62.16;98229.58;147240;1146;104546;-72
2021/01/30 01:26:57;;;;;;;94.72;39.45;;;;;;;0.18;61.98;98229.84;147429;1146;104546;-72
2021/01/30 01:30:00;;;;;;;71.42;33.92;;;;;;;0.25;61.99;98238.00;147640;1146;104543;-69
2021/01/30 01:33:04;;;;;;;87.60;39.63;;;;;;;0.28;62.05;98235.09;147602;1147;104591;-71
2021/01/30 01:36:09;;;;;;;84.20;36.55;;;;;;;0.26;62.03;98225.71;147258;1147;104485;-71
2021/01/30 01:39:12;;;;;;;71.42;30.23;;;;;;;0.26;62.29;98241.45;147195;1146;104470;-70
2021/01/30 01:42:18;;;;;;;82.65;36.65;;;;;;;0.25;61.94;98240.63;147055;1147;104456;-73
2021/01/30 01:45:21;;;;;;;70.95;32.40;;;;;;;0.14;61.76;98222.39;147207;1147;104531;-73
2021/01/30 01:48:28;;;;;;;79.75;37.93;;;;;;;0.10;61.73;98226.27;147143;1146;104604;-73
2021/01/30 01:51:40;;;;;;;86.57;37.53;;;;;;;0.15;61.70;98234.53;147218;1147;104544;-73
2021/01/30 01:54:44;;;;;;;77.92;35.43;;;;;;;0.17;62.30;98228.20;147174;1146;104547;-73
2021/01/30 01:57:51;;;;;;;138.28;55.17;;;;;;;0.23;61.99;98220.73;147225;1147;104473;-73
2021/01/30 02:00:55;;;;;;;138.17;51.97;;;;;;;0.23;62.10;98218.92;147351;1147;104507;-75
2021/01/30 02:03:59;;;;;;;87.62;39.53;;;;;;;0.18;62.04;98219.35;147232;1146;104716;-73
2021/01/30 02:07:04;;;;;;;81.63;37.40;;;;;;;0.21;62.22;98212.99;147234;1147;104557;-74
2021/01/30 02:10:11;;;;;;;74.17;31.67;;;;;;;0.23;62.14;98208.44;147222;1147;104480;-74
2021/01/30 02:13:17;;;;;;;92.27;40.63;;;;;;;0.25;62.09;98209.16;147438;1147;104444;-74
2021/01/30 02:16:34;;;;;;;83.15;36.70;;;;;;;0.27;61.98;98201.97;147582;1146;104959;-74
2021/01/30 02:20:21;;;;;;;78.43;38.10;;;;;;;0.29;62.47;98197.41;147777;1146;104604;-73
2021/01/30 02:24:02;;;;;;;83.45;37.60;;;;;;;0.32;62.26;98199.74;147795;1147;104474;-73
2021/01/30 02:27:28;;;;;;;79.70;34.73;;;;;;;0.35;62.16;98193.41;147703;1146;104560;-73
2021/01/30 02:31:02;;;;;;;81.97;36.98;;;;;;;0.36;62.24;98188.00;147790;1147;104538;-73
2021/01/30 02:34:26;;;;;;;83.47;35.23;;;;;;;0.38;62.61;98186.06;147462;1145;104940;-73
2021/01/30 02:37:36;;;;;;;71.65;32.40;;;;;;;0.40;62.41;98183.30;147610;1147;104572;-73
2021/01/30 02:40:43;;;;;;;73.65;36.77;;;;;;;0.41;62.24;98176.28;147284;1146;104548;-72
2021/01/30 02:43:49;;;;;;;82.27;37.00;;;;;;;0.39;62.26;98181.67;147249;1146;104547;-72
2021/01/30 02:46:56;;;;;;;67.87;31.15;;;;;;;0.39;62.33;98177.23;147335;1147;104460;-73
2021/01/30 02:50:05;;;;;;;77.25;35.75;;;;;;;0.39;62.34;98184.30;147590;1146;104461;-73
2021/01/30 02:53:09;;;;;;;68.75;31.95;;;;;;;0.36;62.26;98177.51;147203;1146;104947;-72
2021/01/30 02:56:14;;;;;;;76.12;35.60;;;;;;;0.33;62.43;98171.73;147535;1147;104660;-73
2021/01/30 02:59:20;;;;;;;71.75;33.00;;;;;;;0.32;62.41;98170.89;147386;1146;104509;-72
2021/01/30 03:02:25;;;;;;;83.15;36.03;;;;;;;0.32;62.93;98178.76;147398;1147;104443;-72
2021/01/30 03:05:28;;;;;;;72.03;34.78;;;;;;;0.28;62.59;98177.38;147511;1146;104573;-73
2021/01/30 03:08:38;;;;;;;59.73;29.55;;;;;;;0.28;62.43;98172.14;147308;1147;104550;-74
2021/01/30 03:11:44;;;;;;;66.07;31.93;;;;;;;0.29;62.42;98170.33;147230;1147;104555;-72
2021/01/30 03:14:55;;;;;;;76.00;35.88;;;;;;;0.27;62.55;98173.13;147517;1146;104538;-73
2021/01/30 03:18:00;;;;;;;59.03;25.82;;;;;;;0.27;62.50;98170.50;147604;1147;104476;-69
2021/01/30 03:21:08;;;;;;;71.12;34.95;;;;;;;0.29;62.52;98165.94;147233;1147;104617;-71
2021/01/30 03:24:12;;;;;;;71.40;35.78;;;;;;;0.32;62.31;98172.69;147552;1146;104633;-72
2021/01/30 03:27:21;;;;;;;62.30;31.93;;;;;;;0.32;62.59;98168.27;147582;1147;104548;-72
2021/01/30 03:30:24;;;;;;;80.17;41.42;;;;;;;0.30;62.47;98178.07;147639;1147;104456;-71
2021/01/30 03:33:27;;;;;;;68.30;31.40;;;;;;;0.18;62.60;98176.56;147682;1147;104545;-72
2021/01/30 03:36:31;;;;;;;63.02;31.17;;;;;;;0.21;62.59;98175.45;147233;1146;104558;-72
2021/01/30 03:39:34;;;;;;;55.57;27.80;;;;;;;0.21;62.52;98171.03;147549;1146;104726;-74
2021/01/30 03:42:38;;;;;;;57.48;29.87;;;;;;;0.23;62.57;98169.09;147327;1146;104632;-75
2021/01/30 03:45:41;;;;;;;50.48;25.62;;;;;;;0.23;62.49;98161.22;147451;1147;104476;-75
2021/01/30 03:48:44;;;;;;;54.58;26.05;;;;;;;0.21;62.51;98157.91;147701;1147;104984;-75
2021/01/30 03:51:47;;;;;;;56.15;27.60;;;;;;;0.22;62.64;98154.34;147537;1147;104455;-73
2021/01/30 03:54:51;;;;;;;45.20;22.27;;;;;;;0.21;62.46;98155.30;147531;1146;104606;-74
2021/01/30 03:57:54;;;;;;;51.00;26.55;;;;;;;0.21;62.41;98160.54;147528;1146;104599;-72
2021/01/30 04:00:57;;;;;;;56.08;27.82;;;;;;;0.17;62.54;98153.92;147794;1146;104605;-72
2021/01/30 04:04:00;;;;;;;50.25;24.23;;;;;;;0.18;62.52;98151.16;147735;1147;104562;-72
2021/01/30 04:07:03;;;;;;;50.30;27.47;;;;;;;0.23;62.46;98153.35;147570;1147;104902;-72
2021/01/30 04:10:11;;;;;;;48.50;25.00;;;;;;;0.20;62.49;98161.52;147617;1146;104850;-73
2021/01/30 04:13:14;;;;;;;56.88;29.65;;;;;;;0.16;62.18;98150.47;147456;1146;104656;-73
2021/01/30 04:16:18;;;;;;;58.67;26.83;;;;;;;0.13;62.82;98152.55;147607;1147;104494;-74
2021/01/30 04:19:21;;;;;;;50.28;24.57;;;;;;;0.09;62.46;98151.17;147494;1147;104838;-75
2021/01/30 04:22:24;;;;;;;53.20;26.27;;;;;;;0.04;62.49;98143.73;147715;1146;104560;-75
2021/01/30 04:25:28;;;;;;;45.38;21.23;;;;;;;0.06;62.65;98147.04;147653;1147;104628;-73
2021/01/30 04:28:31;;;;;;;46.08;24.25;;;;;;;0.01;62.96;98151.04;147714;1146;104572;-74
2021/01/30 04:31:34;;;;;;;42.15;21.80;;;;;;;0.07;62.95;98142.61;147590;1146;104969;-73
2021/01/30 04:34:37;;;;;;;33.55;18.30;;;;;;;0.03;62.25;98133.37;147599;1147;104545;-73
2021/01/30 04:37:41;;;;;;;48.42;24.80;;;;;;;0.04;62.54;98142.88;147750;1146;104560;-70
2021/01/30 04:40:46;;;;;;;38.45;20.50;;;;;;;0.04;62.96;98138.48;147483;1146;104476;-70
2021/01/30 04:44:00;;;;;;;36.07;17.70;;;;;;;0.06;62.78;98144.41;147638;1147;104570;-70
2021/01/30 04:47:23;;;;;;;37.00;21.05;;;;;;;0.06;62.88;98148.81;147613;1147;104544;-69
2021/01/30 04:50:34;;;;;;;33.63;18.55;;;;;;;0.06;62.84;98146.19;147563;1147;104470;-70
2021/01/30 04:53:53;;;;;;;38.85;21.95;;;;;;;0.06;62.66;98138.32;147624;1147;104890;-70
2021/01/30 04:57:12;;;;;;;42.27;23.62;;;;;;;0.06;62.81;98135.70;147373;1147;104690;-70
2021/01/30 05:00:38;;;;;;;41.87;23.10;;;;;;;0.02;62.89;98129.08;147292;1147;104573;-72
2021/01/30 05:04:01;;;;;;;50.12;26.48;;;;;;;0.06;63.12;98135.70;147463;1147;104895;-72
2021/01/30 05:07:17;;;;;;;48.65;25.30;;;;;;;0.02;62.78;98132.55;147638;1147;104902;-70
2021/01/30 05:10:24;;;;;;;50.17;24.25;;;;;;;-0.02;62.86;98132.00;147549;1146;104528;-71
2021/01/30 05:13:33;;;;;;;52.60;27.22;;;;;;;-0.01;62.93;98131.02;147418;1147;104625;-73
2021/01/30 05:16:41;;;;;;;47.27;24.57;;;;;;;0.01;62.73;98124.82;147561;1146;104485;-72
2021/01/30 05:19:51;;;;;;;41.35;19.87;;;;;;;0.02;62.75;98115.97;147382;1147;104467;-72
2021/01/30 05:22:54;;;;;;;46.33;23.70;;;;;;;0.04;63.00;98117.51;147268;1147;104455;-73
2021/01/30 05:26:07;;;;;;;46.70;24.63;;;;;;;0.02;63.17;98123.84;147309;1146;104548;-70
2021/01/30 05:29:14;;;;;;;55.85;28.17;;;;;;;0.01;62.72;98109.09;147558;1147;105147;-71
2021/01/30 05:32:27;;;;;;;62.00;29.35;;;;;;;0.02;62.83;98118.59;147533;1147;104548;-72
2021/01/30 05:35:37;;;;;;;71.25;30.65;;;;;;;-0.03;62.52;98122.46;147435;1147;104473;-72
2021/01/30 05:38:58;;;;;;;78.52;34.85;;;;;;;-0.05;62.65;98115.72;147731;1146;104526;-73
2021/01/30 05:42:11;;;;;;;73.95;32.67;;;;;;;-0.05;62.61;98113.91;147649;1146;104529;-76
2021/01/30 05:45:26;;;;;;;65.33;30.93;;;;;;;-0.08;62.70;98108.97;147399;1146;104548;-78
2021/01/30 05:48:34;;;;;;;68.83;33.00;;;;;;;-0.09;63.36;98115.16;147311;1146;104560;-75
2021/01/30 05:51:41;;;;;;;55.12;25.77;;;;;;;-0.06;62.96;98111.42;147437;1147;104534;-78
2021/01/30 05:54:44;;;;;;;50.03;22.65;;;;;;;-0.07;63.18;98118.47;147627;1145;104462;-77
2021/01/30 05:57:48;;;;;;;62.85;32.53;;;;;;;-0.02;63.13;98113.64;147628;1147;104473;-74
2021/01/30 06:01:11;;;;;;;60.12;31.85;;;;;;;-0.03;63.04;98117.22;147875;1147;104550;-74
2021/01/30 06:04:14;;;;;;;107.10;52.17;;;;;;;-0.02;63.10;98105.78;147921;1147;104563;-72
2021/01/30 06:07:37;;;;;;;68.33;33.80;;;;;;;-0.03;63.00;98106.73;147870;1147;104483;-72
2021/01/30 06:10:42;;;;;;;54.15;26.68;;;;;;;-0.08;63.06;98114.20;147813;1147;104527;-73
2021/01/30 06:13:54;;;;;;;52.33;27.05;;;;;;;-0.12;63.28;98110.18;147898;1147;104497;-71
2021/01/30 06:16:59;;;;;;;;;;;;;;;-0.14;63.49;98112.11;147922;1146;104495;-72
2021/01/30 06:20:15;;;;;;;38.38;17.48;;;;;;;-0.13;63.36;98105.92;147805;1147;104532;-70
2021/01/30 06:23:18;;;;;;;59.00;27.15;;;;;;;-0.14;62.94;98109.48;147643;1147;104530;-70
2021/01/30 06:26:22;;;;;;;43.40;20.92;;;;;;;-0.18;63.47;98104.67;147551;1147;104470;-71
2021/01/30 06:29:35;;;;;;;38.50;18.70;;;;;;;-0.20;63.41;98105.63;147442;1146;104588;-73
2021/01/30 06:32:42;;;;;;;44.18;22.27;;;;;;;-0.20;63.19;98115.29;147518;1147;104752;-74
2021/01/30 06:35:46;;;;;;;50.95;25.55;;;;;;;-0.23;63.32;98111.16;147809;1146;104670;-72
2021/01/30 06:38:55;;;;;;;50.52;24.60;;;;;;;-0.21;63.17;98106.61;147588;1147;104494;-69
2021/01/30 06:42:07;;;;;;;44.15;23.15;;;;;;;-0.22;63.45;98106.73;147548;1147;104550;-71
2021/01/30 06:45:11;;;;;;;;;;;;;;;-0.24;63.51;98112.11;147694;1146;104462;-72
2021/01/30 06:48:27;;;;;;;42.53;21.50;;;;;;;-0.24;63.64;98119.16;147879;1148;104499;-69
2021/01/30 06:51:32;;;;;;;40.67;20.25;;;;;;;-0.21;63.56;98116.27;147664;1147;104579;-69
2021/01/30 06:54:36;;;;;;;37.67;20.43;;;;;;;-0.17;63.70;98115.03;147657;1146;104495;-70
2021/01/30 06:57:51;;;;;;;49.37;23.27;;;;;;;-0.14;63.42;98108.67;147593;1147;104534;-70
2021/01/30 07:01:07;;;;;;;44.00;21.93;;;;;;;-0.11;63.39;98103.16;147583;1147;104476;-70
2021/01/30 07:04:34;;;;;;;38.33;19.82;;;;;;;-0.12;63.80;98107.56;147653;1147;104601;-70
2021/01/30 07:07:49;;;;;;;52.40;25.32;;;;;;;-0.09;63.97;98101.23;147794;1147;104541;-69
2021/01/30 07:11:04;;;;;;;42.48;22.85;;;;;;;-0.07;63.53;98100.12;147587;1147;104581;-68
2021/01/30 07:14:19;;;;;;;42.97;23.07;;;;;;;-0.09;64.18;98096.81;147478;1147;104953;-68
2021/01/30 07:17:39;;;;;;;48.80;27.13;;;;;;;-0.11;63.68;98093.50;147462;1146;104391;-68
2021/01/30 07:20:59;;;;;;;41.68;20.20;;;;;;;-0.13;63.45;98090.19;147102;1147;104613;-71
2021/01/30 07:24:17;;;;;;;40.53;20.33;;;;;;;-0.10;63.47;98096.94;147509;1146;104480;-71
2021/01/30 07:27:25;;;;;;;42.40;21.17;;;;;;;-0.09;63.50;98096.81;147849;1146;104658;-70
2021/01/30 07:30:40;;;;;;;39.10;20.32;;;;;;;-0.08;63.21;98106.34;147582;1146;104564;-72
2021/01/30 07:33:50;;;;;;;39.50;19.20;;;;;;;-0.08;64.34;98103.72;147538;1147;104613;-71
2021/01/30 07:36:59;;;;;;;44.60;24.23;;;;;;;-0.03;63.83;98117.22;147569;1147;104570;-70
2021/01/30 07:40:06;;;;;;;44.65;21.62;;;;;;;-0.02;63.86;98118.89;147788;1147;104587;-71
2021/01/30 07:43:15;;;;;;;37.08;20.12;;;;;;;0.07;63.42;98113.77;147787;1148;104465;-71
2021/01/30 07:46:24;;;;;;;40.10;20.95;;;;;;;0.18;63.76;98116.25;147287;1146;104556;-70
2021/01/30 07:49:32;;;;;;;39.37;21.03;;;;;;;0.20;63.53;98116.94;147241;1147;104499;-73
2021/01/30 07:52:55;;;;;;;46.42;24.35;;;;;;;0.17;63.46;98115.43;147726;1147;104550;-73
2021/01/30 07:56:12;;;;;;;74.00;34.30;;;;;;;0.16;63.76;98107.70;147629;1147;104473;-75
2021/01/30 07:59:29;;;;;;;46.83;22.47;;;;;;;0.17;63.15;98114.58;147396;1147;104512;-78
2021/01/30 08:02:51;;;;;;;58.40;26.80;;;;;;;0.21;63.81;98113.33;147178;1146;104895;-73
2021/01/30 08:06:04;;;;;;;;;;;;;;;0.18;63.84;98113.63;147817;1147;104519;-72
2021/01/30 08:09:17;;;;;;;37.78;17.75;;;;;;;0.14;63.57;98107.83;147376;1147;104568;-72
2021/01/30 08:12:30;;;;;;;46.65;23.35;;;;;;;0.11;63.31;98110.72;147120;1146;104569;-70
2021/01/30 08:15:38;;;;;;;39.83;20.48;;;;;;;0.13;63.65;98111.41;147384;1147;104484;-71
2021/01/30 08:18:43;;;;;;;41.60;21.90;;;;;;;0.18;63.73;98113.63;147545;1146;104550;-70
2021/01/30 08:21:55;;;;;;;38.75;19.20;;;;;;;0.21;63.51;98113.33;147572;1147;104461;-71
2021/01/30 08:25:02;;;;;;;64.60;26.40;;;;;;;0.18;63.53;98114.45;147827;1146;104486;-73
2021/01/30 08:28:21;;;;;;;95.70;39.63;;;;;;;0.17;63.68;98119.82;147728;1147;104544;-74
2021/01/30 08:31:36;;;;;;;51.53;24.57;;;;;;;0.18;63.79;98109.20;147581;1146;104473;-72
2021/01/30 08:34:39;;;;;;;40.50;20.55;;;;;;;0.23;63.91;98110.57;147645;1147;104953;-69
2021/01/30 08:37:42;;;;;;;47.15;24.90;;;;;;;0.14;63.87;98113.08;147849;1146;104509;-66
2021/01/30 08:40:49;;;;;;;40.88;21.42;;;;;;;0.05;63.90;98113.91;147630;1147;104721;-70
2021/01/30 08:43:53;;;;;;;51.28;22.32;;;;;;;0.05;63.88;98113.09;147590;1147;104627;-67
2021/01/30 08:47:09;;;;;;;51.75;24.50;;;;;;;0.07;63.61;98111.15;147336;1147;104494;-70
2021/01/30 08:50:32;;;;;;;40.10;20.57;;;;;;;0.12;64.17;98111.57;147230;1146;104471;-79
2021/01/30 08:53:35;;;;;;;43.95;22.45;;;;;;;0.10;63.99;98116.95;146984;1147;104586;-69
2021/01/30 08:56:55;;;;;;;35.88;20.10;;;;;;;0.04;63.86;98111.41;147048;1146;104624;-72
2021/01/30 08:59:59;;;;;;;44.42;21.93;;;;;;;0.01;64.65;98122.20;147231;1148;104594;-72
2021/01/30 09:03:04;;;;;;;56.15;27.42;;;;;;;0.09;64.18;98128.39;147278;1147;104476;-77
2021/01/30 09:06:08;;;;;;;47.33;23.10;;;;;;;0.12;64.52;98129.92;147268;1147;104473;-73
2021/01/30 09:09:13;;;;;;;44.30;22.30;;;;;;;0.11;64.16;98134.32;147348;1146;104451;-69
2021/01/30 09:12:54;;;;;;;101.00;50.60;;;;;;;0.25;64.73;98129.61;147052;1146;104726;-68
2021/01/30 09:16:04;;;;;;;111.37;59.65;;;;;;;0.29;64.33;98141.48;147469;1146;104470;-68
2021/01/30 09:19:17;;;;;;;120.82;67.35;;;;;;;0.23;63.86;98152.53;147485;1147;104527;-68
2021/01/30 09:22:26;;;;;;;43.23;23.77;;;;;;;0.12;63.96;98151.72;147153;1146;104529;-68
2021/01/30 09:25:43;;;;;;;54.00;28.35;;;;;;;0.09;65.05;98161.66;147271;1146;104442;-66
2021/01/30 09:28:47;;;;;;;55.52;29.48;;;;;;;0.07;64.54;98158.34;147254;1146;104568;-65
2021/01/30 09:31:56;;;;;;;48.20;24.32;;;;;;;0.16;64.69;98162.77;147459;1146;104564;-64
2021/01/30 09:35:04;;;;;;;48.35;24.47;;;;;;;0.15;64.46;98172.41;147621;1146;104503;-66
2021/01/30 09:38:27;;;;;;;266.97;126.43;;;;;;;0.17;64.82;98167.03;147576;1147;104565;-65
2021/01/30 09:41:34;;;;;;;65.65;35.68;;;;;;;0.13;64.95;98157.79;147651;1146;104482;-69
2021/01/30 09:44:38;;;;;;;85.17;46.10;;;;;;;0.23;64.63;98161.22;147712;1147;104537;-68
2021/01/30 09:47:50;;;;;;;54.95;27.75;;;;;;;0.25;64.61;98168.96;147676;1147;104551;-67
2021/01/30 09:50:57;;;;;;;38.33;21.33;;;;;;;0.03;65.11;98167.46;147676;1148;104479;-64
2021/01/30 09:54:02;;;;;;;38.53;19.65;;;;;;;-0.13;65.65;98174.07;147410;1147;104553;-67
2021/01/30 09:57:09;;;;;;;43.68;22.87;;;;;;;-0.17;64.85;98180.55;147718;1147;105055;-65
2021/01/30 10:00:17;;;;;;;40.98;22.10;;;;;;;-0.28;65.37;98178.05;147476;1147;104617;-70
2021/01/30 10:03:23;;;;;;;47.40;23.70;;;;;;;-0.28;65.43;98178.87;147398;1146;104553;-70
2021/01/30 10:06:32;;;;;;;45.17;22.67;;;;;;;-0.21;64.52;98184.42;147634;1147;104612;-69
2021/01/30 10:09:42;;;;;;;46.90;24.10;;;;;;;-0.04;65.63;98194.23;147631;1147;104476;-75
2021/01/30 10:12:45;;;;;;;40.38;21.77;;;;;;;0.02;65.62;98186.77;147565;1147;104460;-73
2021/01/30 10:15:55;;;;;;;43.68;23.32;;;;;;;0.09;65.22;98196.56;147584;1147;104648;-75
2021/01/30 10:19:01;;;;;;;46.42;23.38;;;;;;;0.21;65.03;98197.25;147318;1147;104567;-72
2021/01/30 10:22:16;;;;;;;50.80;24.18;;;;;;;0.16;65.43;98200.30;147268;1146;104542;-77
2021/01/30 10:25:23;;;;;;;51.55;26.12;;;;;;;0.09;65.97;98204.44;147692;1147;104614;-78
2021/01/30 10:28:26;;;;;;;45.40;23.77;;;;;;;0.02;66.41;98208.59;147736;1147;104559;-78
2021/01/30 10:31:35;;;;;;;44.77;23.47;;;;;;;-0.02;66.06;98209.80;147519;1146;104559;-72
2021/01/30 10:34:42;;;;;;;44.60;24.43;;;;;;;0.06;66.04;98214.36;147411;1147;104513;-72
2021/01/30 10:37:50;;;;;;;59.55;29.70;;;;;;;0.21;65.82;98212.99;147431;1147;104454;-75
2021/01/30 10:41:00;;;;;;;44.03;24.80;;;;;;;0.24;65.33;98215.35;147785;1148;104553;-73
2021/01/30 10:44:06;;;;;;;39.58;23.20;;;;;;;0.12;65.44;98217.28;147674;1147;104471;-71
2021/01/30 10:47:11;;;;;;;28.27;16.43;;;;;;;0.05;66.31;98220.59;147146;1146;104610;-77
2021/01/30 10:50:20;;;;;;;27.17;15.55;;;;;;;0.01;66.10;98220.03;147461;1146;104553;-70
2021/01/30 10:53:29;;;;;;;29.37;15.73;;;;;;;0.07;65.45;98221.28;147144;1146;104553;-71
2021/01/30 10:56:32;;;;;;;31.52;17.85;;;;;;;0.16;66.08;98229.16;147697;1147;104927;-76
2021/01/30 10:59:50;;;;;;;27.13;16.15;;;;;;;0.25;65.81;98222.27;147779;1146;104559;-71
2021/01/30 11:02:54;;;;;;;29.32;16.93;;;;;;;0.24;65.62;98225.84;147751;1147;104630;-71
2021/01/30 11:06:19;;;;;;;31.30;16.80;;;;;;;0.21;66.11;98235.77;147675;1146;104589;-73
2021/01/30 11:09:28;;;;;;;38.50;21.27;;;;;;;0.26;66.10;98233.58;147747;1147;104532;-74
2021/01/30 11:12:31;;;;;;;39.67;21.70;;;;;;;0.20;66.78;98232.33;147325;1147;104914;-72
2021/01/30 11:15:40;;;;;;;38.95;20.88;;;;;;;0.11;66.81;98238.39;147715;1146;104476;-76
2021/01/30 11:18:47;;;;;;;41.30;22.77;;;;;;;0.08;66.90;98236.03;147843;1147;104668;-72
2021/01/30 11:22:03;;;;;;;44.95;24.00;;;;;;;-0.03;67.45;98243.06;147379;1146;104549;-69
2021/01/30 11:25:13;;;;;;;39.83;21.70;;;;;;;-0.08;67.09;98240.04;147397;1147;104556;-71
2021/01/30 11:28:35;;;;;;;39.00;20.43;;;;;;;-0.07;67.13;98241.68;147101;1147;104544;-73
2021/01/30 11:31:39;;;;;;;48.58;24.75;;;;;;;0.07;67.67;98242.25;147525;1147;104463;-72
2021/01/30 11:34:45;;;;;;;44.00;24.07;;;;;;;0.08;66.94;98239.50;147291;1146;104563;-70
2021/01/30 11:37:48;;;;;;;48.13;27.00;;;;;;;0.09;67.38;98245.56;147373;1147;104469;-71
2021/01/30 11:40:54;;;;;;;48.90;27.40;;;;;;;0.17;67.65;98254.42;147505;1147;104529;-70
2021/01/30 11:43:58;;;;;;;49.48;26.35;;;;;;;0.26;66.82;98258.00;147074;1146;104476;-70
2021/01/30 11:47:01;;;;;;;47.45;25.82;;;;;;;0.29;67.50;98262.99;147230;1147;104430;-72
2021/01/30 11:50:06;;;;;;;48.78;26.52;;;;;;;0.19;67.91;98256.89;147780;1147;104585;-68
2021/01/30 11:53:11;;;;;;;43.17;23.57;;;;;;;0.25;67.43;98261.61;147541;1147;104483;-69
2021/01/30 11:56:14;;;;;;;52.03;27.93;;;;;;;0.21;67.79;98262.83;147588;1146;104538;-69
2021/01/30 11:59:17;;;;;;;52.05;28.83;;;;;;;0.19;67.69;98267.38;147695;1147;104547;-70
2021/01/30 12:02:28;;;;;;;52.30;27.55;;;;;;;0.13;67.97;98257.44;147616;1147;104476;-69
2021/01/30 12:05:32;;;;;;;55.63;30.97;;;;;;;0.09;68.43;98266.55;147562;1147;104541;-69
2021/01/30 12:08:35;;;;;;;55.40;29.07;;;;;;;0.07;68.85;98276.34;147623;1148;104560;-69
2021/01/30 12:11:38;;;;;;;54.70;28.73;;;;;;;0.12;68.49;98266.28;147657;1147;104526;-69
2021/01/30 12:14:41;;;;;;;75.80;40.90;;;;;;;0.22;68.03;98271.55;147615;1146;104600;-69
2021/01/30 12:17:47;;;;;;;58.30;32.05;;;;;;;0.34;68.17;98268.64;147501;1146;104492;-68
2021/01/30 12:20:53;;;;;;;55.00;28.32;;;;;;;0.41;67.63;98270.73;147377;1147;104583;-72
2021/01/30 12:23:56;;;;;;;56.25;31.52;;;;;;;0.41;67.94;98275.98;147485;1146;104465;-70
2021/01/30 12:26:59;;;;;;;61.60;32.93;;;;;;;0.47;68.05;98288.55;147615;1147;104557;-72
2021/01/30 12:30:03;;;;;;;52.38;26.97;;;;;;;0.42;67.62;98283.69;147718;1147;104588;-72
2021/01/30 12:33:08;;;;;;;57.13;31.57;;;;;;;0.47;67.81;98281.49;147762;1147;104507;-70
2021/01/30 12:36:11;;;;;;;62.70;33.63;;;;;;;0.47;68.08;98286.74;147416;1147;104639;-71
2021/01/30 12:39:14;;;;;;;80.65;38.13;;;;;;;0.54;67.94;98289.62;147636;1147;104584;-71
2021/01/30 12:42:17;;;;;;;73.90;38.13;;;;;;;0.55;67.49;98289.50;147559;1146;104550;-70
2021/01/30 12:45:21;;;;;;;60.58;33.13;;;;;;;0.50;68.11;98283.86;147098;1146;104549;-71
2021/01/30 12:48:24;;;;;;;82.00;45.47;;;;;;;0.54;68.04;98294.88;147166;1145;104476;-70
2021/01/30 12:51:28;;;;;;;77.45;42.62;;;;;;;0.62;67.90;98300.29;147087;1147;104636;-67
2021/01/30 12:54:31;;;;;;;64.90;33.20;;;;;;;0.55;68.04;98304.42;147359;1147;104605;-75
2021/01/30 12:57:34;;;;;;;66.87;36.50;;;;;;;0.51;68.59;98313.54;147596;1148;104585;-72
2021/01/30 13:00:37;;;;;;;69.05;35.92;;;;;;;0.46;68.42;98300.81;147563;1146;104566;-73
2021/01/30 13:03:40;;;;;;;60.10;29.87;;;;;;;0.46;68.71;98310.48;147569;1147;104551;-71
2021/01/30 13:06:43;;;;;;;80.20;39.38;;;;;;;0.49;68.44;98313.67;147866;1147;104706;-74
2021/01/30 13:09:46;;;;;;;113.93;52.63;;;;;;;0.49;68.50;98312.85;147791;1146;104627;-72
2021/01/30 13:12:50;;;;;;;58.47;30.13;;;;;;;0.53;68.68;98320.30;147763;1146;104468;-70
2021/01/30 13:15:53;;;;;;;56.15;30.35;;;;;;;0.52;68.32;98312.56;147610;1147;104450;-71
2021/01/30 13:18:56;;;;;;;52.20;27.53;;;;;;;0.64;68.85;98323.78;147736;1147;104498;-69
2021/01/30 13:21:59;;;;;;;51.92;27.02;;;;;;;0.53;68.36;98319.48;147728;1147;104608;-72
2021/01/30 13:25:04;;;;;;;55.95;28.73;;;;;;;0.49;69.38;98320.72;147700;1146;104633;-72
2021/01/30 13:28:10;;;;;;;55.98;29.07;;;;;;;0.42;68.67;98330.92;147413;1146;104858;-71
2021/01/30 13:31:13;;;;;;;83.07;38.63;;;;;;;0.53;68.98;98337.84;147633;1147;104466;-70
2021/01/30 13:34:18;;;;;;;61.85;30.68;;;;;;;0.58;68.66;98333.85;147608;1147;104474;-70
2021/01/30 13:37:21;;;;;;;52.50;25.47;;;;;;;0.55;69.20;98346.41;147609;1146;104892;-68
2021/01/30 13:40:24;;;;;;;51.70;27.55;;;;;;;0.50;69.13;98345.98;147040;1147;104499;-69
2021/01/30 13:43:28;;;;;;;51.08;26.45;;;;;;;0.54;68.96;98356.09;147498;1147;104527;-68
2021/01/30 13:46:31;;;;;;;47.33;22.42;;;;;;;0.55;68.87;98352.48;147580;1147;104465;-71
2021/01/30 13:49:34;;;;;;;48.35;24.82;;;;;;;0.49;69.18;98352.21;147727;1147;104557;-72
2021/01/30 13:52:38;;;;;;;40.90;21.42;;;;;;;0.42;68.88;98361.58;147695;1146;104859;-68
2021/01/30 13:55:41;;;;;;;47.65;23.90;;;;;;;0.31;69.22;98355.50;147667;1147;104548;-69
2021/01/30 13:58:44;;;;;;;59.95;31.52;;;;;;;0.34;69.08;98360.45;147633;1147;104495;-68
2021/01/30 14:01:48;;;;;;;49.73;27.00;;;;;;;0.36;69.56;98365.58;147596;1147;104553;-71
2021/01/30 14:04:51;;;;;;;57.83;27.87;;;;;;;0.38;69.44;98367.09;147134;1147;104590;-68
2021/01/30 14:07:58;;;;;;;51.90;27.70;;;;;;;0.28;68.93;98362.80;147048;1146;104601;-70
2021/01/30 14:11:01;;;;;;;40.63;22.23;;;;;;;0.21;69.10;98361.67;147513;1147;104471;-70
2021/01/30 14:14:04;;;;;;;40.60;21.25;;;;;;;0.20;70.27;98363.47;147671;1147;104452;-72